createdAt,value
2023-05-16T00:03:08.016Z,19.68
2023-05-16T00:08:10.474Z,19.64
2023-05-16T00:13:14.014Z,19.63
2023-05-16T00:18:17.124Z,19.61
2023-05-16T00:23:19.407Z,19.69
2023-05-16T00:28:21.864Z,19.63
2023-05-16T00:33:24.111Z,19.57
2023-05-16T00:38:26.676Z,19.47
2023-05-16T00:43:28.854Z,19.43
2023-05-16T00:48:31.212Z,19.27
2023-05-16T00:53:33.473Z,19.32
2023-05-16T00:58:37.260Z,19.19
2023-05-16T01:03:39.908Z,19.05
2023-05-16T01:08:42.322Z,18.96
2023-05-16T01:14:05.961Z,19.03
2023-05-16T01:19:29.519Z,19.14
2023-05-16T01:24:44.223Z,19.15
2023-05-16T01:29:46.550Z,19.15
2023-05-16T01:34:49.315Z,19.10
2023-05-16T01:40:10.254Z,19.11
2023-05-16T01:45:27.407Z,19.15
2023-05-16T01:50:35.037Z,19.02
2023-05-16T01:55:47.114Z,19.09
2023-05-16T02:00:49.458Z,19.10
2023-05-16T02:05:51.718Z,18.96
2023-05-16T02:10:54.042Z,18.94
2023-05-16T02:15:56.311Z,18.89
2023-05-16T02:20:58.485Z,18.83
2023-05-16T02:26:00.675Z,18.71
2023-05-16T02:31:02.968Z,18.64
2023-05-16T02:36:05.468Z,18.80
2023-05-16T02:41:07.679Z,18.77
2023-05-16T02:46:33.312Z,18.71
2023-05-16T02:51:35.761Z,18.78
2023-05-16T02:56:38.114Z,18.67
2023-05-16T03:01:40.531Z,18.49
2023-05-16T03:06:42.887Z,18.38
2023-05-16T03:11:45.133Z,18.37
2023-05-16T03:16:47.711Z,18.76
2023-05-16T03:21:49.909Z,18.95
2023-05-16T03:26:52.535Z,19.02
2023-05-16T03:31:55.381Z,18.99
2023-05-16T03:36:57.898Z,19.11
2023-05-16T03:42:00.237Z,19.09
2023-05-16T03:47:02.504Z,19.18
2023-05-16T03:52:07.622Z,19.07
2023-05-16T03:57:09.950Z,18.99
2023-05-16T04:02:12.262Z,19.14
2023-05-16T04:07:14.617Z,19.17
2023-05-16T04:12:17.007Z,19.18
2023-05-16T04:17:19.262Z,19.09
2023-05-16T04:22:24.425Z,18.29
2023-05-16T04:27:27.304Z,18.40
2023-05-16T04:32:29.673Z,18.42
2023-05-16T04:37:32.204Z,18.23
2023-05-16T04:42:34.489Z,18.21
2023-05-16T04:47:37.182Z,18.17
2023-05-16T04:52:39.418Z,18.59
2023-05-16T04:57:41.626Z,18.74
2023-05-16T05:02:44.434Z,18.91
2023-05-16T05:07:46.929Z,18.80
2023-05-16T05:12:49.182Z,19.04
2023-05-16T05:17:51.561Z,19.07
2023-05-16T05:22:53.884Z,19.31
2023-05-16T05:27:56.199Z,19.42
2023-05-16T05:32:58.634Z,19.02
2023-05-16T05:38:00.919Z,19.03
2023-05-16T05:43:03.188Z,18.66
2023-05-16T05:48:06.057Z,18.78
2023-05-16T05:53:08.413Z,18.86
2023-05-16T05:58:11.221Z,18.96
2023-05-16T06:03:14.885Z,19.17
2023-05-16T06:08:17.118Z,19.17
2023-05-16T06:13:19.294Z,19.31
2023-05-16T06:18:22.239Z,19.44
2023-05-16T06:23:24.569Z,19.55
2023-05-16T06:28:26.816Z,19.63
2023-05-16T06:33:29.076Z,19.75
2023-05-16T06:38:31.612Z,19.80
2023-05-16T06:43:33.855Z,19.85
2023-05-16T06:48:36.188Z,19.90
2023-05-16T06:53:38.489Z,20.05
2023-05-16T06:58:40.869Z,19.97
2023-05-16T07:03:43.227Z,19.93
2023-05-16T07:08:45.763Z,19.96
2023-05-16T07:13:48.230Z,19.56
2023-05-16T07:18:50.629Z,19.62
2023-05-16T07:23:53.158Z,19.68
2023-05-16T07:28:55.876Z,19.70
2023-05-16T07:33:58.685Z,19.92
2023-05-16T07:39:01.222Z,19.71
2023-05-16T07:44:03.591Z,19.86
2023-05-16T07:49:05.904Z,19.97
2023-05-16T07:54:08.165Z,20.03
2023-05-16T07:59:10.760Z,20.04
2023-05-16T08:04:12.981Z,20.12
2023-05-16T08:09:15.237Z,20.12
2023-05-16T08:14:17.712Z,20.18
2023-05-16T08:19:20.101Z,20.29
2023-05-16T08:24:22.459Z,20.32
2023-05-16T08:29:24.946Z,20.51
2023-05-16T08:34:27.218Z,20.88
2023-05-16T08:39:31.122Z,21.07
2023-05-16T08:44:34.889Z,21.06
2023-05-16T08:49:40.030Z,21.31
2023-05-16T08:54:42.770Z,21.46
2023-05-16T08:59:46.053Z,21.29
2023-05-16T09:04:49.163Z,21.48
2023-05-16T09:09:55.152Z,20.87
2023-05-16T09:14:58.669Z,20.73
2023-05-16T09:20:01.987Z,21.04
2023-05-16T09:25:06.927Z,21.09
2023-05-16T09:30:11.608Z,21.04
2023-05-16T09:35:27.283Z,21.18
2023-05-16T09:40:45.009Z,21.16
2023-05-16T09:45:48.650Z,21.00
2023-05-16T09:50:55.587Z,20.93
2023-05-16T09:56:05.447Z,20.94
2023-05-16T10:01:09.297Z,20.85
2023-05-16T10:06:13.060Z,21.03
2023-05-16T10:11:16.873Z,21.09
2023-05-16T10:16:22.039Z,21.10
2023-05-16T10:21:28.900Z,20.96
2023-05-16T10:26:33.106Z,20.99
2023-05-16T10:31:36.553Z,21.02
2023-05-16T10:36:40.204Z,21.05
2023-05-16T10:41:43.376Z,20.95
2023-05-16T10:46:48.610Z,20.60
2023-05-16T10:52:10.747Z,20.77
2023-05-16T10:57:23.250Z,20.67
2023-05-16T11:02:33.337Z,20.88
2023-05-16T11:07:39.530Z,21.05
2023-05-16T11:12:52.819Z,21.11
2023-05-16T11:18:09.172Z,21.14
2023-05-16T11:23:17.413Z,21.13
2023-05-16T11:28:20.428Z,21.02
2023-05-16T11:33:23.443Z,21.01
2023-05-16T11:38:25.984Z,20.89
2023-05-16T11:43:28.223Z,19.81
2023-05-16T11:48:36.271Z,19.78
2023-05-16T11:53:40.092Z,20.27
2023-05-16T11:58:43.095Z,20.41
2023-05-16T12:03:45.732Z,20.10
2023-05-16T12:08:52.190Z,19.61
2023-05-16T12:13:54.618Z,19.93
2023-05-16T12:18:56.940Z,20.43
2023-05-16T12:23:59.648Z,20.94
2023-05-16T12:29:04.462Z,21.08
2023-05-16T12:34:16.394Z,21.03
2023-05-16T12:39:18.658Z,21.13
2023-05-16T12:44:20.965Z,20.90
2023-05-16T12:49:23.480Z,20.97
2023-05-16T12:54:25.950Z,21.15
2023-05-16T12:59:29.674Z,21.35
2023-05-16T13:04:32.170Z,21.45
2023-05-16T13:09:34.554Z,21.62
2023-05-16T13:14:36.925Z,21.76
2023-05-16T13:19:39.440Z,21.71
2023-05-16T13:24:41.916Z,21.72
2023-05-16T13:29:44.724Z,21.90
2023-05-16T13:34:47.084Z,21.96
2023-05-16T13:39:49.369Z,22.05
2023-05-16T13:44:52.016Z,22.05
2023-05-16T13:49:54.344Z,21.94
2023-05-16T13:54:56.655Z,22.08
2023-05-16T14:00:24.662Z,22.09
2023-05-16T14:05:21.492Z,22.12
2023-05-16T14:10:23.830Z,22.05
2023-05-16T14:15:26.274Z,22.11
2023-05-16T14:20:28.966Z,22.03
2023-05-16T14:25:34.368Z,21.97
2023-05-16T14:30:37.791Z,21.96
2023-05-16T14:35:41.531Z,22.03
2023-05-16T14:40:43.866Z,22.16
2023-05-16T14:45:46.202Z,22.36
2023-05-16T14:50:48.543Z,22.56
2023-05-16T14:55:50.780Z,22.71
2023-05-16T15:00:53.023Z,22.81
2023-05-16T15:05:55.580Z,22.92
2023-05-16T15:10:57.843Z,22.88
2023-05-16T15:16:00.380Z,22.93
2023-05-16T15:21:02.656Z,22.81
2023-05-16T15:26:05.401Z,22.79
2023-05-16T15:31:07.680Z,22.79
2023-05-16T15:36:09.965Z,22.78
2023-05-16T15:46:17.721Z,22.78
2023-05-16T15:51:20.264Z,22.68
2023-05-16T15:56:22.644Z,22.68
2023-05-16T16:01:24.978Z,22.60
2023-05-16T16:06:27.459Z,22.63
2023-05-16T16:11:30.023Z,22.47
2023-05-16T16:16:32.795Z,22.39
2023-05-16T16:21:35.333Z,22.32
2023-05-16T16:26:38.375Z,22.25
2023-05-16T16:31:41.456Z,22.09
2023-05-16T16:36:43.882Z,22.05
2023-05-16T16:41:46.540Z,21.92
2023-05-16T16:46:49.102Z,21.85
2023-05-16T16:51:51.465Z,21.72
2023-05-16T16:56:53.776Z,21.91
2023-05-16T17:01:56.163Z,21.76
2023-05-16T17:06:58.373Z,21.70
2023-05-16T17:12:08.103Z,21.63
2023-05-16T17:17:10.553Z,21.61
2023-05-16T17:22:13.964Z,21.66
2023-05-16T17:27:16.315Z,21.46
2023-05-16T17:32:20.551Z,21.45
2023-05-16T17:37:23.034Z,21.37
2023-05-16T17:42:25.355Z,21.32
2023-05-16T17:47:27.681Z,21.27
2023-05-16T17:52:29.984Z,21.18
2023-05-16T17:57:32.250Z,21.18
2023-05-16T18:02:36.695Z,21.03
2023-05-16T18:07:40.555Z,21.22
2023-05-16T18:12:43.394Z,21.13
2023-05-16T18:17:45.867Z,20.99
2023-05-16T18:22:48.348Z,21.01
2023-05-16T18:27:50.754Z,20.96
2023-05-16T18:32:53.123Z,20.96
2023-05-16T18:37:55.416Z,20.99
2023-05-16T18:42:58.799Z,20.87
2023-05-16T18:48:01.344Z,20.75
2023-05-16T18:53:03.799Z,20.75
2023-05-16T18:58:06.039Z,20.77
2023-05-16T19:03:10.121Z,20.68
2023-05-16T19:08:12.435Z,20.68
2023-05-16T19:13:14.738Z,20.59
2023-05-16T19:18:18.327Z,20.65
2023-05-16T19:23:21.076Z,20.58
2023-05-16T19:28:24.994Z,20.45
2023-05-16T19:33:27.273Z,20.44
2023-05-16T19:38:29.684Z,20.44
2023-05-16T19:43:31.984Z,20.44
2023-05-16T19:48:34.421Z,20.36
2023-05-16T19:53:36.816Z,20.40
2023-05-16T19:58:39.277Z,20.28
2023-05-16T20:03:42.033Z,20.17
2023-05-16T20:08:44.462Z,20.30
2023-05-16T20:13:46.901Z,20.16
2023-05-16T20:18:49.218Z,20.21
2023-05-16T20:23:51.731Z,19.97
2023-05-16T20:28:54.057Z,20.00
2023-05-16T20:33:56.443Z,20.11
2023-05-16T20:38:58.786Z,20.02
2023-05-16T20:44:01.141Z,19.97
2023-05-16T20:49:03.624Z,20.03
2023-05-16T20:54:05.968Z,19.91
2023-05-16T20:59:08.267Z,19.80
2023-05-16T21:04:10.741Z,19.98
2023-05-16T21:09:13.038Z,19.92
2023-05-16T21:14:15.392Z,19.69
2023-05-16T21:19:17.789Z,19.76
2023-05-16T21:24:20.114Z,19.77
2023-05-16T21:29:22.468Z,19.73
2023-05-16T21:34:24.812Z,19.66
2023-05-16T21:39:27.315Z,19.63
2023-05-16T21:44:31.997Z,19.62
2023-05-16T21:49:35.917Z,19.50
2023-05-16T21:54:38.181Z,19.49
2023-05-16T21:59:40.541Z,19.49
2023-05-16T22:04:42.848Z,19.23
2023-05-16T22:09:45.485Z,19.15
2023-05-16T22:14:47.875Z,19.18
2023-05-16T22:19:50.231Z,18.68
2023-05-16T22:24:52.581Z,18.94
2023-05-16T22:29:54.852Z,18.68
2023-05-16T22:34:57.647Z,18.92
2023-05-16T22:39:59.997Z,18.85
2023-05-16T22:45:02.235Z,18.91
2023-05-16T22:50:04.837Z,18.74
2023-05-16T22:55:08.431Z,18.32
2023-05-16T23:00:11.090Z,18.42
2023-05-16T23:05:13.344Z,18.50
2023-05-16T23:10:15.566Z,18.08
2023-05-16T23:15:17.802Z,18.35
2023-05-16T23:20:20.241Z,18.42
2023-05-16T23:25:22.695Z,18.37
2023-05-16T23:30:25.309Z,18.39
2023-05-16T23:35:27.647Z,18.45
2023-05-16T23:40:30.100Z,18.15
2023-05-16T23:45:32.344Z,18.52
2023-05-16T23:50:34.637Z,18.56
2023-05-16T23:55:36.895Z,18.63
